NKS1833 KDFW-KGYR
Flight info
| Callsign | NKS1833 |
|---|---|
| Flight time | N/A |
| Altitude | 38000 |
| Route | NELYN6 HOARY JCT EWM SSO SUNSS8 |
| Aircraft | A20N/M-SDE2E3FGHIRWXY/LB1 |
Departure
| Time | N/A |
|---|---|
| Airport | Dallas Fort Worth International Airport (KDFW) |
Arrival
| Time | 2026-05-06 23:58 |
|---|---|
| Airport | Phoenix Goodyear Airport (KGYR) |
| Time | Latitude | Longitude | Altitude | Speed | Heading |
|---|---|---|---|---|---|
| 2026-05-06 21:26 | 31.61836 | -98.07720 | 37981 ft | 348 kts | 268° |
| 2026-05-06 21:27 | 31.62042 | -98.10553 | 37981 ft | 348 kts | 268° |
| 2026-05-06 21:27 | 31.62453 | -98.16222 | 37975 ft | 348 kts | 268° |
| 2026-05-06 21:28 | 31.62859 | -98.21847 | 37973 ft | 347 kts | 268° |
| 2026-05-06 21:28 | 31.63263 | -98.27504 | 37973 ft | 347 kts | 268° |
| 2026-05-06 21:29 | 31.63666 | -98.33160 | 37972 ft | 347 kts | 268° |
| 2026-05-06 21:29 | 31.64064 | -98.38798 | 37990 ft | 348 kts | 268° |
| 2026-05-06 21:30 | 31.64462 | -98.44470 | 37983 ft | 348 kts | 268° |
| 2026-05-06 21:30 | 31.64856 | -98.50116 | 37991 ft | 348 kts | 268° |
| 2026-05-06 21:31 | 31.65248 | -98.55766 | 37996 ft | 348 kts | 268° |
| 2026-05-06 21:31 | 31.65640 | -98.61461 | 37997 ft | 348 kts | 268° |
| 2026-05-06 21:32 | 31.66027 | -98.67108 | 38000 ft | 349 kts | 268° |
| 2026-05-06 21:32 | 31.66607 | -98.75649 | 37999 ft | 349 kts | 268° |
| 2026-05-06 21:33 | 31.66988 | -98.81314 | 38004 ft | 349 kts | 268° |
| 2026-05-06 21:33 | 31.67368 | -98.86994 | 38004 ft | 349 kts | 268° |
| 2026-05-06 21:34 | 31.67746 | -98.92683 | 38004 ft | 349 kts | 268° |
| 2026-05-06 21:34 | 31.68120 | -98.98336 | 38000 ft | 348 kts | 268° |
| 2026-05-06 21:35 | 31.68490 | -99.03985 | 37996 ft | 348 kts | 268° |
| 2026-05-06 21:35 | 31.68861 | -99.09683 | 38019 ft | 347 kts | 267° |
| 2026-05-06 21:36 | 31.69224 | -99.15281 | 37993 ft | 345 kts | 267° |
| 2026-05-06 21:36 | 31.69585 | -99.20918 | 37991 ft | 346 kts | 267° |
| 2026-05-06 21:37 | 31.69944 | -99.26554 | 37983 ft | 346 kts | 267° |
| 2026-05-06 21:37 | 31.70300 | -99.32170 | 37978 ft | 345 kts | 267° |
| 2026-05-06 21:38 | 31.70652 | -99.37770 | 38012 ft | 346 kts | 267° |
| 2026-05-06 21:38 | 31.71005 | -99.43419 | 38017 ft | 346 kts | 267° |
| 2026-05-06 21:39 | 31.71356 | -99.49070 | 38010 ft | 347 kts | 267° |
| 2026-05-06 21:39 | 31.71703 | -99.54701 | 38043 ft | 347 kts | 266° |
| 2026-05-06 21:40 | 31.72050 | -99.60352 | 37994 ft | 344 kts | 266° |
| 2026-05-06 21:40 | 31.72390 | -99.65975 | 38001 ft | 345 kts | 266° |
| 2026-05-06 21:41 | 31.72727 | -99.71585 | 37977 ft | 345 kts | 266° |
| 2026-05-06 21:41 | 31.73061 | -99.77168 | 37970 ft | 345 kts | 266° |
| 2026-05-06 21:42 | 31.73396 | -99.82811 | 37969 ft | 345 kts | 266° |
| 2026-05-06 21:42 | 31.73726 | -99.88403 | 37958 ft | 345 kts | 266° |
| 2026-05-06 21:43 | 31.74055 | -99.94033 | 37956 ft | 345 kts | 266° |
| 2026-05-06 21:43 | 31.74381 | -99.99638 | 37955 ft | 345 kts | 266° |
| 2026-05-06 21:44 | 31.74705 | -100.05272 | 37956 ft | 345 kts | 266° |
| 2026-05-06 21:44 | 31.75027 | -100.10903 | 37958 ft | 345 kts | 266° |
| 2026-05-06 21:45 | 31.75345 | -100.16509 | 37955 ft | 345 kts | 266° |
| 2026-05-06 21:45 | 31.75662 | -100.22153 | 37962 ft | 345 kts | 266° |
| 2026-05-06 21:46 | 31.75976 | -100.27764 | 37963 ft | 345 kts | 266° |
| 2026-05-06 21:46 | 31.76286 | -100.33370 | 37958 ft | 345 kts | 266° |
| 2026-05-06 21:47 | 31.76596 | -100.39007 | 37953 ft | 345 kts | 266° |
| 2026-05-06 21:47 | 31.76903 | -100.44637 | 37951 ft | 345 kts | 266° |
| 2026-05-06 21:48 | 31.77205 | -100.50229 | 37949 ft | 345 kts | 266° |
| 2026-05-06 21:48 | 31.77507 | -100.55851 | 37947 ft | 344 kts | 266° |
| 2026-05-06 21:49 | 31.77806 | -100.61494 | 37945 ft | 345 kts | 265° |
| 2026-05-06 21:49 | 31.78101 | -100.67093 | 37944 ft | 345 kts | 265° |
| 2026-05-06 21:50 | 31.78395 | -100.72721 | 37936 ft | 344 kts | 265° |
| 2026-05-06 21:50 | 31.78686 | -100.78323 | 37939 ft | 344 kts | 265° |
| 2026-05-06 21:51 | 31.78975 | -100.83945 | 37932 ft | 344 kts | 265° |
| 2026-05-06 21:51 | 31.79262 | -100.89583 | 37930 ft | 344 kts | 265° |
| 2026-05-06 21:52 | 31.79545 | -100.95174 | 37926 ft | 344 kts | 265° |
| 2026-05-06 21:52 | 31.79825 | -101.00769 | 37926 ft | 344 kts | 265° |
| 2026-05-06 21:53 | 31.80103 | -101.06387 | 37922 ft | 343 kts | 265° |
| 2026-05-06 21:53 | 31.80379 | -101.11995 | 37922 ft | 343 kts | 265° |
| 2026-05-06 21:54 | 31.80650 | -101.17571 | 37905 ft | 343 kts | 265° |
| 2026-05-06 21:54 | 31.80923 | -101.23193 | 37907 ft | 343 kts | 265° |
| 2026-05-06 21:55 | 31.81189 | -101.28771 | 37911 ft | 343 kts | 265° |
| 2026-05-06 21:55 | 31.81456 | -101.34391 | 37902 ft | 344 kts | 265° |
| 2026-05-06 21:56 | 31.81720 | -101.40009 | 37906 ft | 345 kts | 265° |
| 2026-05-06 21:56 | 31.81981 | -101.45614 | 37911 ft | 345 kts | 265° |
| 2026-05-06 21:57 | 31.82242 | -101.51280 | 37909 ft | 346 kts | 265° |
| 2026-05-06 21:57 | 31.82500 | -101.56878 | 37910 ft | 342 kts | 265° |
| 2026-05-06 21:58 | 31.82752 | -101.62484 | 37898 ft | 343 kts | 265° |
| 2026-05-06 21:58 | 31.83000 | -101.68056 | 37868 ft | 343 kts | 265° |
| 2026-05-06 21:59 | 31.83249 | -101.73755 | 37900 ft | 350 kts | 265° |
| 2026-05-06 21:59 | 31.83502 | -101.79432 | 37908 ft | 348 kts | 265° |
| 2026-05-06 22:00 | 31.83750 | -101.85138 | 37925 ft | 349 kts | 265° |
| 2026-05-06 22:00 | 31.83994 | -101.90812 | 37935 ft | 348 kts | 265° |
| 2026-05-06 22:01 | 31.84235 | -101.96476 | 37950 ft | 349 kts | 265° |
| 2026-05-06 22:01 | 31.84475 | -102.02197 | 37956 ft | 349 kts | 265° |
| 2026-05-06 22:02 | 31.84712 | -102.07888 | 37973 ft | 350 kts | 265° |
| 2026-05-06 22:02 | 31.84949 | -102.13582 | 37956 ft | 347 kts | 265° |
| 2026-05-06 22:03 | 31.85177 | -102.19232 | 37995 ft | 347 kts | 265° |
| 2026-05-06 22:03 | 31.85406 | -102.24899 | 37987 ft | 347 kts | 265° |
| 2026-05-06 22:04 | 31.85595 | -102.29643 | 37996 ft | 347 kts | 265° |
| 2026-05-06 22:04 | 31.85856 | -102.36246 | 37998 ft | 347 kts | 265° |
| 2026-05-06 22:05 | 31.86041 | -102.41002 | 38088 ft | 347 kts | 264° |
| 2026-05-06 22:05 | 31.86262 | -102.46567 | 38000 ft | 338 kts | 264° |
| 2026-05-06 22:06 | 31.86468 | -102.52113 | 37981 ft | 341 kts | 264° |
| 2026-05-06 22:06 | 31.86678 | -102.57688 | 37961 ft | 340 kts | 264° |
| 2026-05-06 22:07 | 31.86886 | -102.63266 | 37934 ft | 341 kts | 264° |
| 2026-05-06 22:07 | 31.87090 | -102.68811 | 37911 ft | 341 kts | 264° |
| 2026-05-06 22:08 | 31.87293 | -102.74392 | 37891 ft | 341 kts | 264° |
| 2026-05-06 22:08 | 31.87493 | -102.79948 | 37857 ft | 341 kts | 264° |
| 2026-05-06 22:09 | 31.87692 | -102.85512 | 37854 ft | 338 kts | 264° |
| 2026-05-06 22:09 | 31.87885 | -102.91030 | 37854 ft | 339 kts | 264° |
| 2026-05-06 22:10 | 31.88077 | -102.96577 | 37843 ft | 339 kts | 264° |
| 2026-05-06 22:10 | 31.88265 | -103.02081 | 37843 ft | 339 kts | 264° |
| 2026-05-06 22:11 | 31.88452 | -103.07610 | 37841 ft | 339 kts | 264° |
| 2026-05-06 22:11 | 31.88637 | -103.13165 | 37840 ft | 339 kts | 264° |
| 2026-05-06 22:12 | 31.88818 | -103.18721 | 37834 ft | 339 kts | 264° |
| 2026-05-06 22:12 | 31.88995 | -103.24236 | 37828 ft | 340 kts | 264° |
| 2026-05-06 22:13 | 31.89173 | -103.29785 | 37829 ft | 340 kts | 264° |
| 2026-05-06 22:13 | 31.89349 | -103.35350 | 37829 ft | 340 kts | 264° |
| 2026-05-06 22:14 | 31.89522 | -103.40898 | 37835 ft | 340 kts | 264° |
| 2026-05-06 22:14 | 31.89694 | -103.46473 | 37835 ft | 340 kts | 264° |
| 2026-05-06 22:15 | 31.89864 | -103.52055 | 37831 ft | 341 kts | 264° |
| 2026-05-06 22:15 | 31.90032 | -103.57623 | 37828 ft | 342 kts | 264° |
| 2026-05-06 22:16 | 31.90198 | -103.63240 | 37833 ft | 342 kts | 264° |
| 2026-05-06 22:16 | 31.90360 | -103.68808 | 37838 ft | 343 kts | 264° |
| 2026-05-06 22:17 | 31.90520 | -103.74417 | 37831 ft | 343 kts | 264° |
| 2026-05-06 22:17 | 31.90678 | -103.80042 | 37830 ft | 343 kts | 264° |
| 2026-05-06 22:18 | 31.90833 | -103.85636 | 37832 ft | 343 kts | 264° |
| 2026-05-06 22:18 | 31.90986 | -103.91238 | 37825 ft | 343 kts | 264° |
| 2026-05-06 22:19 | 31.91137 | -103.96878 | 37823 ft | 343 kts | 264° |
| 2026-05-06 22:19 | 31.91285 | -104.02478 | 37825 ft | 343 kts | 264° |
| 2026-05-06 22:20 | 31.91432 | -104.08103 | 37832 ft | 343 kts | 264° |
| 2026-05-06 22:20 | 31.91574 | -104.13698 | 37823 ft | 343 kts | 264° |
| 2026-05-06 22:21 | 31.91714 | -104.19327 | 37827 ft | 344 kts | 263° |
| 2026-05-06 22:21 | 31.91850 | -104.24950 | 37839 ft | 350 kts | 264° |
| 2026-05-06 22:22 | 31.91989 | -104.30687 | 37835 ft | 349 kts | 264° |
| 2026-05-06 22:22 | 31.92127 | -104.36412 | 37846 ft | 349 kts | 264° |
| 2026-05-06 22:23 | 31.92259 | -104.42105 | 37846 ft | 349 kts | 264° |
| 2026-05-06 22:23 | 31.92389 | -104.47796 | 37845 ft | 349 kts | 264° |
| 2026-05-06 22:24 | 31.92517 | -104.53522 | 37854 ft | 349 kts | 264° |
| 2026-05-06 22:24 | 31.92641 | -104.59201 | 37854 ft | 349 kts | 264° |
| 2026-05-06 22:25 | 31.92765 | -104.64945 | 37861 ft | 349 kts | 264° |
| 2026-05-06 22:25 | 31.92886 | -104.70638 | 37863 ft | 350 kts | 264° |
| 2026-05-06 22:26 | 31.93003 | -104.76384 | 37855 ft | 350 kts | 264° |
| 2026-05-06 22:26 | 31.93135 | -104.82061 | 37845 ft | 347 kts | 264° |
| 2026-05-06 22:27 | 31.93244 | -104.87721 | 37856 ft | 344 kts | 263° |
| 2026-05-06 22:27 | 31.93337 | -104.93386 | 37868 ft | 350 kts | 263° |
| 2026-05-06 22:28 | 31.93444 | -104.99136 | 37852 ft | 349 kts | 263° |
| 2026-05-06 22:28 | 31.93549 | -105.04823 | 37852 ft | 349 kts | 263° |
| 2026-05-06 22:29 | 31.93651 | -105.10566 | 37845 ft | 349 kts | 263° |
| 2026-05-06 22:29 | 31.93751 | -105.16260 | 37846 ft | 349 kts | 263° |
| 2026-05-06 22:30 | 31.93848 | -105.21985 | 37842 ft | 349 kts | 263° |
| 2026-05-06 22:30 | 31.93942 | -105.27678 | 37842 ft | 349 kts | 263° |
| 2026-05-06 22:31 | 31.94034 | -105.33382 | 37841 ft | 349 kts | 263° |
| 2026-05-06 22:31 | 31.94124 | -105.39110 | 37856 ft | 348 kts | 263° |
| 2026-05-06 22:32 | 31.94212 | -105.44780 | 37842 ft | 344 kts | 263° |
| 2026-05-06 22:32 | 31.94293 | -105.50397 | 37849 ft | 345 kts | 263° |
| 2026-05-06 22:33 | 31.94374 | -105.56053 | 37849 ft | 345 kts | 263° |
| 2026-05-06 22:33 | 31.94452 | -105.61706 | 37850 ft | 345 kts | 263° |
| 2026-05-06 22:34 | 31.94528 | -105.67333 | 37861 ft | 344 kts | 263° |
| 2026-05-06 22:34 | 31.94602 | -105.72967 | 37856 ft | 342 kts | 263° |
| 2026-05-06 22:35 | 31.94672 | -105.78546 | 37875 ft | 341 kts | 263° |
| 2026-05-06 22:35 | 31.94737 | -105.84151 | 37879 ft | 345 kts | 263° |
| 2026-05-06 22:36 | 31.94806 | -105.89799 | 37874 ft | 344 kts | 263° |
| 2026-05-06 22:36 | 31.94872 | -105.95449 | 37871 ft | 344 kts | 263° |
| 2026-05-06 22:37 | 31.94936 | -106.01040 | 37884 ft | 345 kts | 262° |
| 2026-05-06 22:37 | 31.94996 | -106.06744 | 37911 ft | 347 kts | 262° |
| 2026-05-06 22:38 | 31.95056 | -106.12394 | 37928 ft | 346 kts | 262° |
| 2026-05-06 22:38 | 31.95113 | -106.18059 | 37964 ft | 346 kts | 262° |
| 2026-05-06 22:39 | 31.95166 | -106.23751 | 37974 ft | 347 kts | 262° |
| 2026-05-06 22:39 | 31.95278 | -106.29419 | 37996 ft | 351 kts | 266° |
| 2026-05-06 22:40 | 31.95999 | -106.35182 | 38002 ft | 356 kts | 269° |
| 2026-05-06 22:40 | 31.96770 | -106.40946 | 38000 ft | 358 kts | 269° |
| 2026-05-06 22:41 | 31.97810 | -106.49595 | 37972 ft | 352 kts | 268° |
| 2026-05-06 22:42 | 31.98473 | -106.55335 | 37989 ft | 358 kts | 268° |
| 2026-05-06 22:42 | 31.99143 | -106.61129 | 38017 ft | 356 kts | 268° |
| 2026-05-06 22:43 | 31.99812 | -106.66923 | 38022 ft | 357 kts | 268° |
| 2026-05-06 22:43 | 32.00477 | -106.72717 | 38017 ft | 356 kts | 268° |
| 2026-05-06 22:44 | 32.01135 | -106.78469 | 38001 ft | 356 kts | 268° |
| 2026-05-06 22:44 | 32.01795 | -106.84269 | 38008 ft | 356 kts | 268° |
| 2026-05-06 22:45 | 32.02448 | -106.90018 | 37933 ft | 354 kts | 268° |
| 2026-05-06 22:45 | 32.03095 | -106.95744 | 37938 ft | 354 kts | 268° |
| 2026-05-06 22:46 | 32.03743 | -107.01514 | 37936 ft | 354 kts | 268° |
| 2026-05-06 22:46 | 32.04385 | -107.07252 | 37928 ft | 356 kts | 268° |
| 2026-05-06 22:47 | 32.05032 | -107.13067 | 37914 ft | 356 kts | 268° |
| 2026-05-06 22:47 | 32.05674 | -107.18834 | 37890 ft | 356 kts | 268° |
| 2026-05-06 22:48 | 32.06316 | -107.24637 | 37870 ft | 356 kts | 268° |
| 2026-05-06 22:48 | 32.06952 | -107.30409 | 37873 ft | 355 kts | 268° |
| 2026-05-06 22:49 | 32.07585 | -107.36179 | 37875 ft | 355 kts | 268° |
| 2026-05-06 22:49 | 32.08216 | -107.41974 | 37911 ft | 358 kts | 268° |
| 2026-05-06 22:50 | 32.08847 | -107.47786 | 37941 ft | 358 kts | 268° |
| 2026-05-06 22:50 | 32.09481 | -107.53625 | 37969 ft | 358 kts | 268° |
| 2026-05-06 22:51 | 32.10108 | -107.59436 | 37992 ft | 358 kts | 268° |
| 2026-05-06 22:51 | 32.10732 | -107.65259 | 38013 ft | 358 kts | 268° |
| 2026-05-06 22:52 | 32.11352 | -107.71078 | 38025 ft | 359 kts | 268° |
| 2026-05-06 22:52 | 32.11972 | -107.76898 | 38026 ft | 360 kts | 268° |
| 2026-05-06 22:53 | 32.12594 | -107.82775 | 37898 ft | 360 kts | 268° |
| 2026-05-06 22:53 | 32.13109 | -107.87647 | 37896 ft | 360 kts | 268° |
| 2026-05-06 22:54 | 32.13825 | -107.94466 | 37901 ft | 360 kts | 268° |
| 2026-05-06 22:54 | 32.14334 | -107.99339 | 37902 ft | 360 kts | 268° |
| 2026-05-06 22:55 | 32.14944 | -108.05202 | 37912 ft | 360 kts | 268° |
| 2026-05-06 22:55 | 32.15554 | -108.11086 | 37912 ft | 360 kts | 268° |
| 2026-05-06 22:56 | 32.16155 | -108.16920 | 37917 ft | 360 kts | 268° |
| 2026-05-06 22:56 | 32.16756 | -108.22773 | 37917 ft | 360 kts | 268° |
| 2026-05-06 22:57 | 32.17357 | -108.28656 | 37915 ft | 360 kts | 268° |
| 2026-05-06 22:57 | 32.17953 | -108.34514 | 37931 ft | 360 kts | 268° |
| 2026-05-06 22:58 | 32.18547 | -108.40383 | 37960 ft | 360 kts | 268° |
| 2026-05-06 22:58 | 32.19139 | -108.46268 | 37984 ft | 361 kts | 268° |
| 2026-05-06 22:59 | 32.19726 | -108.52116 | 38007 ft | 361 kts | 268° |
| 2026-05-06 22:59 | 32.20316 | -108.58023 | 38027 ft | 361 kts | 268° |
| 2026-05-06 23:00 | 32.20897 | -108.63873 | 38038 ft | 360 kts | 268° |
| 2026-05-06 23:00 | 32.21481 | -108.69766 | 38046 ft | 360 kts | 268° |
| 2026-05-06 23:01 | 32.22054 | -108.75607 | 37917 ft | 360 kts | 268° |
| 2026-05-06 23:01 | 32.22629 | -108.81510 | 37916 ft | 363 kts | 268° |
| 2026-05-06 23:02 | 32.23208 | -108.87439 | 37916 ft | 362 kts | 268° |
| 2026-05-06 23:02 | 32.23780 | -108.93343 | 37920 ft | 364 kts | 268° |
| 2026-05-06 23:03 | 32.24355 | -108.99290 | 37917 ft | 364 kts | 268° |
| 2026-05-06 23:03 | 32.24925 | -109.05213 | 37917 ft | 363 kts | 268° |
| 2026-05-06 23:04 | 32.25488 | -109.11103 | 37919 ft | 363 kts | 268° |
| 2026-05-06 23:04 | 32.26051 | -109.17078 | 37918 ft | 367 kts | 268° |
| 2026-05-06 23:05 | 32.26619 | -109.23041 | 37924 ft | 366 kts | 268° |
| 2026-05-06 23:05 | 32.27583 | -109.29033 | 37925 ft | 376 kts | 276° |
| 2026-05-06 23:06 | 32.29042 | -109.34959 | 37917 ft | 377 kts | 276° |
| 2026-05-06 23:06 | 32.30499 | -109.40917 | 37921 ft | 376 kts | 276° |
| 2026-05-06 23:07 | 32.31941 | -109.46838 | 37933 ft | 377 kts | 276° |
| 2026-05-06 23:07 | 32.33395 | -109.52820 | 37920 ft | 377 kts | 276° |
| 2026-05-06 23:08 | 32.34834 | -109.58756 | 37913 ft | 377 kts | 276° |
| 2026-05-06 23:08 | 32.36281 | -109.64735 | 37916 ft | 378 kts | 276° |
| 2026-05-06 23:09 | 32.37719 | -109.70696 | 37925 ft | 379 kts | 276° |
| 2026-05-06 23:09 | 32.39167 | -109.76710 | 37922 ft | 379 kts | 276° |
| 2026-05-06 23:10 | 32.40609 | -109.82717 | 37939 ft | 385 kts | 277° |
| 2026-05-06 23:10 | 32.42079 | -109.88847 | 37938 ft | 385 kts | 277° |
| 2026-05-06 23:11 | 32.43540 | -109.94945 | 37955 ft | 385 kts | 277° |
| 2026-05-06 23:11 | 32.44991 | -110.01023 | 37947 ft | 385 kts | 277° |
| 2026-05-06 23:12 | 32.46445 | -110.07134 | 37945 ft | 385 kts | 277° |
| 2026-05-06 23:12 | 32.47895 | -110.13241 | 37940 ft | 384 kts | 277° |
| 2026-05-06 23:13 | 32.49343 | -110.19365 | 37947 ft | 390 kts | 277° |
| 2026-05-06 23:13 | 32.50807 | -110.25543 | 37949 ft | 389 kts | 277° |
| 2026-05-06 23:14 | 32.52251 | -110.31695 | 37946 ft | 390 kts | 277° |
| 2026-05-06 23:14 | 32.53722 | -110.37968 | 37946 ft | 395 kts | 278° |
| 2026-05-06 23:15 | 32.55188 | -110.44187 | 37947 ft | 393 kts | 278° |
| 2026-05-06 23:15 | 32.56660 | -110.50483 | 37951 ft | 399 kts | 278° |
| 2026-05-06 23:16 | 32.58141 | -110.56822 | 37949 ft | 399 kts | 278° |
| 2026-05-06 23:16 | 32.59623 | -110.63172 | 37953 ft | 399 kts | 278° |
| 2026-05-06 23:17 | 32.60734 | -110.67954 | 37953 ft | 399 kts | 278° |
| 2026-05-06 23:17 | 32.60793 | -110.68209 | 37952 ft | 399 kts | 278° |
| 2026-05-06 23:18 | 32.62257 | -110.74528 | 37956 ft | 399 kts | 278° |
| 2026-05-06 23:18 | 32.63728 | -110.80891 | 37968 ft | 399 kts | 278° |
| 2026-05-06 23:19 | 32.65207 | -110.87318 | 37955 ft | 405 kts | 278° |
| 2026-05-06 23:19 | 32.66795 | -110.93707 | 37956 ft | 408 kts | 284° |
| 2026-05-06 23:20 | 32.69399 | -110.99827 | 37788 ft | 423 kts | 296° |
| 2026-05-06 23:20 | 32.71152 | -111.02680 | 37329 ft | 429 kts | 302° |
| 2026-05-06 23:20 | 32.73134 | -111.05305 | 36629 ft | 434 kts | 306° |
| 2026-05-06 23:20 | 32.75202 | -111.07954 | 35704 ft | 437 kts | 305° |
| 2026-05-06 23:21 | 32.77277 | -111.10626 | 34745 ft | 441 kts | 305° |
| 2026-05-06 23:21 | 32.79338 | -111.13288 | 33804 ft | 443 kts | 305° |
| 2026-05-06 23:21 | 32.81428 | -111.16000 | 32750 ft | 445 kts | 306° |
| 2026-05-06 23:21 | 32.83529 | -111.18727 | 31720 ft | 447 kts | 307° |
| 2026-05-06 23:22 | 32.85643 | -111.21473 | 30694 ft | 449 kts | 308° |
| 2026-05-06 23:22 | 32.87733 | -111.24190 | 29658 ft | 450 kts | 309° |
| 2026-05-06 23:22 | 32.89847 | -111.26950 | 28508 ft | 450 kts | 310° |
| 2026-05-06 23:22 | 32.91969 | -111.29718 | 27393 ft | 450 kts | 311° |
| 2026-05-06 23:23 | 32.94057 | -111.32438 | 26335 ft | 448 kts | 311° |
| 2026-05-06 23:23 | 32.96138 | -111.35149 | 25301 ft | 436 kts | 312° |
| 2026-05-06 23:23 | 32.98164 | -111.37791 | 24316 ft | 425 kts | 313° |
| 2026-05-06 23:23 | 33.00125 | -111.40347 | 23340 ft | 417 kts | 313° |
| 2026-05-06 23:24 | 33.02069 | -111.42877 | 22216 ft | 408 kts | 313° |
| 2026-05-06 23:24 | 33.03967 | -111.45349 | 21145 ft | 401 kts | 313° |
| 2026-05-06 23:24 | 33.05833 | -111.47790 | 20100 ft | 394 kts | 311° |
| 2026-05-06 23:24 | 33.07400 | -111.50413 | 19102 ft | 388 kts | 302° |
| 2026-05-06 23:25 | 33.08761 | -111.53176 | 18113 ft | 384 kts | 300° |
| 2026-05-06 23:25 | 33.10059 | -111.55968 | 17006 ft | 380 kts | 300° |
| 2026-05-06 23:25 | 33.11315 | -111.58717 | 15983 ft | 375 kts | 300° |
| 2026-05-06 23:25 | 33.12551 | -111.61444 | 14964 ft | 370 kts | 300° |
| 2026-05-06 23:26 | 33.13744 | -111.64103 | 13983 ft | 365 kts | 300° |
| 2026-05-06 23:26 | 33.14929 | -111.66758 | 12921 ft | 360 kts | 300° |
| 2026-05-06 23:26 | 33.16097 | -111.69380 | 11855 ft | 355 kts | 300° |
| 2026-05-06 23:26 | 33.17251 | -111.71970 | 10828 ft | 350 kts | 300° |
| 2026-05-06 23:27 | 33.18377 | -111.74498 | 9925 ft | 345 kts | 300° |
| 2026-05-06 23:27 | 33.19483 | -111.76976 | 9365 ft | 328 kts | 300° |
| 2026-05-06 23:27 | 33.20518 | -111.79294 | 9115 ft | 303 kts | 300° |
| 2026-05-06 23:27 | 33.21468 | -111.81442 | 9007 ft | 286 kts | 300° |
| 2026-05-06 23:28 | 33.22398 | -111.83573 | 8993 ft | 289 kts | 300° |
| 2026-05-06 23:28 | 33.23322 | -111.85696 | 8995 ft | 288 kts | 300° |
| 2026-05-06 23:28 | 33.24249 | -111.87823 | 8999 ft | 290 kts | 300° |
| 2026-05-06 23:28 | 33.25168 | -111.89930 | 8965 ft | 288 kts | 300° |
| 2026-05-06 23:29 | 33.26090 | -111.92050 | 8842 ft | 286 kts | 300° |
| 2026-05-06 23:29 | 33.27012 | -111.94171 | 8706 ft | 286 kts | 300° |
| 2026-05-06 23:29 | 33.27931 | -111.96276 | 8618 ft | 285 kts | 300° |
| 2026-05-06 23:29 | 33.28837 | -111.98350 | 8533 ft | 285 kts | 300° |
| 2026-05-06 23:30 | 33.29757 | -112.00454 | 8438 ft | 285 kts | 300° |
| 2026-05-06 23:30 | 33.30677 | -112.02555 | 8362 ft | 284 kts | 300° |
| 2026-05-06 23:30 | 33.31596 | -112.04648 | 8288 ft | 284 kts | 300° |
| 2026-05-06 23:30 | 33.32514 | -112.06739 | 8210 ft | 283 kts | 298° |
| 2026-05-06 23:31 | 33.33032 | -112.08991 | 8142 ft | 288 kts | 274° |
| 2026-05-06 23:31 | 33.32678 | -112.11340 | 8071 ft | 291 kts | 248° |
| 2026-05-06 23:31 | 33.31614 | -112.13412 | 7993 ft | 293 kts | 233° |
| 2026-05-06 23:31 | 33.30148 | -112.15089 | 7925 ft | 297 kts | 221° |
| 2026-05-06 23:32 | 33.28573 | -112.16672 | 7846 ft | 294 kts | 220° |
| 2026-05-06 23:32 | 33.27001 | -112.18253 | 7774 ft | 295 kts | 220° |
| 2026-05-06 23:32 | 33.25444 | -112.19816 | 7717 ft | 294 kts | 220° |
| 2026-05-06 23:32 | 33.23900 | -112.21363 | 7640 ft | 292 kts | 221° |
| 2026-05-06 23:33 | 33.22335 | -112.22924 | 7565 ft | 293 kts | 220° |
| 2026-05-06 23:33 | 33.20777 | -112.24485 | 7480 ft | 289 kts | 221° |
| 2026-05-06 23:33 | 33.19229 | -112.26035 | 7408 ft | 290 kts | 221° |
| 2026-05-06 23:33 | 33.17676 | -112.27584 | 7113 ft | 290 kts | 220° |
| 2026-05-06 23:34 | 33.16160 | -112.29126 | 6935 ft | 285 kts | 220° |
| 2026-05-06 23:34 | 33.14654 | -112.30662 | 6795 ft | 288 kts | 222° |
| 2026-05-06 23:34 | 33.13370 | -112.32465 | 6645 ft | 281 kts | 242° |
| 2026-05-06 23:34 | 33.12807 | -112.34613 | 6507 ft | 266 kts | 267° |
| 2026-05-06 23:35 | 33.13066 | -112.36720 | 6362 ft | 252 kts | 293° |
| 2026-05-06 23:35 | 33.13985 | -112.38426 | 6215 ft | 239 kts | 315° |
| 2026-05-06 23:35 | 33.15127 | -112.39820 | 6079 ft | 228 kts | 316° |
| 2026-05-06 23:35 | 33.16159 | -112.41081 | 6053 ft | 200 kts | 315° |
| 2026-05-06 23:36 | 33.17086 | -112.42217 | 5852 ft | 184 kts | 314° |
| 2026-05-06 23:36 | 33.17956 | -112.43287 | 5635 ft | 178 kts | 314° |
| 2026-05-06 23:36 | 33.18826 | -112.44361 | 5416 ft | 182 kts | 314° |
| 2026-05-06 23:36 | 33.19706 | -112.45447 | 5194 ft | 180 kts | 313° |
| 2026-05-06 23:37 | 33.20572 | -112.46515 | 4979 ft | 181 kts | 313° |
| 2026-05-06 23:37 | 33.21438 | -112.47585 | 4761 ft | 176 kts | 313° |
| 2026-05-06 23:37 | 33.22289 | -112.48638 | 4544 ft | 179 kts | 313° |
| 2026-05-06 23:37 | 33.23158 | -112.49714 | 4319 ft | 178 kts | 313° |
| 2026-05-06 23:38 | 33.24024 | -112.50787 | 4090 ft | 179 kts | 313° |
| 2026-05-06 23:38 | 33.24878 | -112.51842 | 3978 ft | 176 kts | 313° |
| 2026-05-06 23:38 | 33.25903 | -112.52594 | 3973 ft | 180 kts | 345° |
| 2026-05-06 23:38 | 33.27146 | -112.52420 | 3906 ft | 187 kts | 24° |
| 2026-05-06 23:39 | 33.28189 | -112.51490 | 3784 ft | 185 kts | 38° |
| 2026-05-06 23:39 | 33.29126 | -112.50531 | 3651 ft | 168 kts | 38° |
| 2026-05-06 23:39 | 33.29969 | -112.49666 | 3521 ft | 150 kts | 38° |
| 2026-05-06 23:39 | 33.30733 | -112.48901 | 3379 ft | 137 kts | 37° |
| 2026-05-06 23:40 | 33.31456 | -112.48182 | 3208 ft | 138 kts | 37° |
| 2026-05-06 23:40 | 33.32204 | -112.47442 | 3099 ft | 138 kts | 37° |
| 2026-05-06 23:40 | 33.32950 | -112.46709 | 2968 ft | 139 kts | 37° |
| 2026-05-06 23:40 | 33.33449 | -112.46218 | 2854 ft | 140 kts | 37° |
| 2026-05-06 23:41 | 33.34203 | -112.45474 | 2668 ft | 141 kts | 36° |
| 2026-05-06 23:41 | 33.34953 | -112.44737 | 2488 ft | 138 kts | 36° |
| 2026-05-06 23:41 | 33.35678 | -112.44028 | 2322 ft | 137 kts | 36° |
| 2026-05-06 23:41 | 33.36442 | -112.43281 | 2152 ft | 144 kts | 37° |
| 2026-05-06 23:42 | 33.37459 | -112.42290 | 1965 ft | 141 kts | 37° |
| 2026-05-06 23:42 | 33.37975 | -112.41787 | 1887 ft | 142 kts | 38° |
| 2026-05-06 23:42 | 33.38757 | -112.41022 | 1748 ft | 146 kts | 38° |
| 2026-05-06 23:42 | 33.39520 | -112.40236 | 1474 ft | 145 kts | 41° |
| 2026-05-06 23:43 | 33.40322 | -112.39444 | 1217 ft | 147 kts | 39° |
| 2026-05-06 23:43 | 33.41118 | -112.38672 | 1047 ft | 149 kts | 39° |
| 2026-05-06 23:43 | 33.41931 | -112.37905 | 958 ft | 143 kts | 39° |
| 2026-05-06 23:43 | 33.42654 | -112.37240 | 984 ft | 124 kts | 39° |
| 2026-05-06 23:44 | 33.43455 | -112.36474 | 1181 ft | 175 kts | 39° |
| 2026-05-06 23:44 | 33.44436 | -112.35501 | 2183 ft | 205 kts | 38° |
| 2026-05-06 23:44 | 33.45726 | -112.34173 | 2527 ft | 280 kts | 39° |
| 2026-05-06 23:44 | 33.47410 | -112.32681 | 3172 ft | 316 kts | 25° |
| 2026-05-06 23:45 | 33.49578 | -112.31667 | 3697 ft | 355 kts | 17° |
| 2026-05-06 23:45 | 33.52069 | -112.30810 | 4201 ft | 374 kts | 6° |
| 2026-05-06 23:45 | 33.54484 | -112.30846 | 4764 ft | 327 kts | 347° |
| 2026-05-06 23:45 | 33.56540 | -112.31790 | 4488 ft | 314 kts | 326° |
| 2026-05-06 23:46 | 33.58039 | -112.33549 | 4130 ft | 301 kts | 302° |
| 2026-05-06 23:46 | 33.58729 | -112.35823 | 3974 ft | 282 kts | 276° |
| 2026-05-06 23:46 | 33.58493 | -112.38044 | 3962 ft | 261 kts | 249° |
| 2026-05-06 23:46 | 33.57474 | -112.39729 | 3974 ft | 243 kts | 222° |
| 2026-05-06 23:47 | 33.56209 | -112.40965 | 3972 ft | 227 kts | 220° |
| 2026-05-06 23:47 | 33.54991 | -112.42130 | 3974 ft | 230 kts | 221° |
| 2026-05-06 23:47 | 33.53730 | -112.43351 | 3973 ft | 234 kts | 221° |
| 2026-05-06 23:47 | 33.52458 | -112.44592 | 3965 ft | 232 kts | 221° |
| 2026-05-06 23:48 | 33.51216 | -112.45798 | 3971 ft | 229 kts | 221° |
| 2026-05-06 23:48 | 33.49991 | -112.46981 | 3965 ft | 230 kts | 220° |
| 2026-05-06 23:48 | 33.48749 | -112.48192 | 3971 ft | 232 kts | 221° |
| 2026-05-06 23:48 | 33.47494 | -112.49415 | 3966 ft | 231 kts | 220° |
| 2026-05-06 23:49 | 33.46250 | -112.50619 | 3975 ft | 228 kts | 221° |
| 2026-05-06 23:49 | 33.44997 | -112.51834 | 3978 ft | 231 kts | 220° |
| 2026-05-06 23:49 | 33.43770 | -112.53038 | 3984 ft | 231 kts | 221° |
| 2026-05-06 23:49 | 33.42531 | -112.54254 | 3984 ft | 229 kts | 221° |
| 2026-05-06 23:50 | 33.41289 | -112.55459 | 3986 ft | 229 kts | 220° |
| 2026-05-06 23:50 | 33.38793 | -112.57902 | 3989 ft | 230 kts | 220° |
| 2026-05-06 23:50 | 33.37545 | -112.59110 | 3987 ft | 230 kts | 221° |
| 2026-05-06 23:51 | 33.36297 | -112.60313 | 3991 ft | 231 kts | 220° |
| 2026-05-06 23:51 | 33.35036 | -112.61543 | 3987 ft | 240 kts | 220° |
| 2026-05-06 23:51 | 33.33585 | -112.62450 | 3985 ft | 233 kts | 191° |
| 2026-05-06 23:51 | 33.31955 | -112.62250 | 3993 ft | 243 kts | 160° |
| 2026-05-06 23:52 | 33.30618 | -112.61102 | 3983 ft | 242 kts | 131° |
| 2026-05-06 23:52 | 33.29628 | -112.59436 | 3981 ft | 246 kts | 123° |
| 2026-05-06 23:52 | 33.28711 | -112.57730 | 3942 ft | 239 kts | 124° |
| 2026-05-06 23:52 | 33.27801 | -112.56121 | 3848 ft | 227 kts | 125° |
| 2026-05-06 23:53 | 33.27184 | -112.54504 | 3764 ft | 200 kts | 101° |
| 2026-05-06 23:53 | 33.27245 | -112.52944 | 3227 ft | 190 kts | 72° |
| 2026-05-06 23:53 | 33.27931 | -112.51631 | 2690 ft | 179 kts | 41° |
| 2026-05-06 23:53 | 33.28922 | -112.50693 | 2389 ft | 188 kts | 36° |
| 2026-05-06 23:54 | 33.29936 | -112.49716 | 2209 ft | 190 kts | 37° |
| 2026-05-06 23:54 | 33.30943 | -112.48727 | 2187 ft | 180 kts | 38° |
| 2026-05-06 23:54 | 33.31820 | -112.47852 | 2200 ft | 152 kts | 37° |
| 2026-05-06 23:54 | 33.32631 | -112.47043 | 2191 ft | 151 kts | 38° |
| 2026-05-06 23:55 | 33.33429 | -112.46252 | 2188 ft | 152 kts | 37° |
| 2026-05-06 23:55 | 33.34244 | -112.45449 | 2210 ft | 152 kts | 37° |
| 2026-05-06 23:55 | 33.35062 | -112.44640 | 2216 ft | 150 kts | 36° |
| 2026-05-06 23:55 | 33.35871 | -112.43845 | 2198 ft | 154 kts | 37° |
| 2026-05-06 23:56 | 33.36704 | -112.43029 | 2172 ft | 154 kts | 36° |
| 2026-05-06 23:56 | 33.37526 | -112.42219 | 2078 ft | 155 kts | 36° |
| 2026-05-06 23:56 | 33.38351 | -112.41411 | 1943 ft | 152 kts | 39° |
| 2026-05-06 23:56 | 33.39138 | -112.40579 | 1630 ft | 150 kts | 40° |
| 2026-05-06 23:57 | 33.39938 | -112.39784 | 1369 ft | 156 kts | 39° |
| 2026-05-06 23:57 | 33.40774 | -112.38997 | 1144 ft | 150 kts | 39° |
| 2026-05-06 23:57 | 33.41579 | -112.38238 | 985 ft | 148 kts | 38° |
| 2026-05-06 23:57 | 33.42285 | -112.37578 | 961 ft | 96 kts | 37° |
| 2026-05-06 23:58 | 33.42664 | -112.37225 | 975 ft | 62 kts | 38° |
| 2026-05-06 23:58 | 33.42801 | -112.37084 | 969 ft | 18 kts | 60° |
| 2026-05-06 23:58 | 33.42780 | -112.36989 | 978 ft | 11 kts | 137° |
| 2026-05-06 23:58 | 33.42729 | -112.36896 | 969 ft | 17 kts | 124° |
| 2026-05-06 23:59 | 33.42636 | -112.36777 | 968 ft | 23 kts | 132° |
| 2026-05-06 23:59 | 33.42567 | -112.36669 | 970 ft | 1 kts | 127° |
| 2026-05-06 23:59 | 33.42550 | -112.36642 | 968 ft | 9 kts | 127° |
| 2026-05-06 23:59 | 33.42518 | -112.36616 | 968 ft | 3 kts | 196° |
| 2026-05-07 00:00 | 33.42479 | -112.36648 | 964 ft | 7 kts | 192° |
| 2026-05-07 00:00 | 33.42440 | -112.36606 | 964 ft | 10 kts | 125° |
| 2026-05-07 00:00 | 33.42418 | -112.36582 | 967 ft | 2 kts | 190° |
| 2026-05-07 00:00 | 33.42411 | -112.36592 | 966 ft | 1 kts | 226° |
| 2026-05-07 00:01 | 33.42409 | -112.36595 | 965 ft | 0 kts | 226° |